Time;durP1;ratioP1;P1;durP2;ratioP2;P2;SDS_P1;SDS_P2;PMS_P1;PMS_P2;Temp;Humidity;BMP_temperature;BMP_pressure;BME280_temperature;BME280_humidity;BME280_pressure;Samples;Min_cycle;Max_cycle;Signal;HPM_P1;HPM_P2
2022/01/15 00:02:22;;;;;;;47.88;38.05;;;11.60;77.80;;;;;;5036087;28;20394;-67
2022/01/15 00:04:48;;;;;;;42.80;37.85;;;11.50;77.60;;;;;;5036110;28;20025;-76
2022/01/15 00:07:14;;;;;;;44.20;36.95;;;11.50;77.90;;;;;;5036265;28;20089;-76
2022/01/15 00:09:42;;;;;;;45.45;37.42;;;11.50;77.70;;;;;;5035988;28;20065;-76
2022/01/15 00:12:09;;;;;;;45.17;38.97;;;11.50;77.90;;;;;;5035304;28;20544;-76
2022/01/15 00:14:39;;;;;;;39.88;35.33;;;11.50;77.90;;;;;;5035789;28;20029;-77
2022/01/15 00:17:07;;;;;;;44.88;37.60;;;11.50;77.70;;;;;;5035865;28;20474;-75
2022/01/15 00:19:42;;;;;;;43.42;37.45;;;11.50;77.90;;;;;;5035840;28;20021;-77
2022/01/15 00:22:17;;;;;;;49.97;39.55;;;11.40;77.80;;;;;;5035827;28;20471;-76
2022/01/15 00:24:43;;;;;;;43.75;36.45;;;11.40;78.00;;;;;;5035682;28;20546;-75
2022/01/15 00:27:09;;;;;;;44.65;37.90;;;11.40;77.80;;;;;;5035509;28;20105;-75
2022/01/15 00:29:36;;;;;;;44.38;37.95;;;11.40;78.00;;;;;;5035503;28;20045;-76
2022/01/15 00:32:03;;;;;;;45.35;38.97;;;11.30;78.10;;;;;;5035501;28;20268;-76
2022/01/15 00:34:29;;;;;;;48.15;41.75;;;11.30;78.20;;;;;;5035568;28;20033;-74
2022/01/15 00:36:55;;;;;;;46.40;39.38;;;11.30;78.30;;;;;;5035358;28;20025;-76
2022/01/15 00:39:21;;;;;;;49.10;40.20;;;11.30;78.50;;;;;;5035573;28;20032;-76
2022/01/15 00:41:47;;;;;;;51.00;41.65;;;11.20;78.70;;;;;;5035170;28;20029;-77
2022/01/15 00:44:12;;;;;;;45.42;38.33;;;11.30;78.80;;;;;;5035484;28;20119;-77
2022/01/15 00:46:38;;;;;;;46.97;39.90;;;11.20;78.60;;;;;;5035238;28;20108;-77
2022/01/15 00:49:04;;;;;;;46.63;40.40;;;11.20;78.50;;;;;;5035323;28;20467;-76
2022/01/15 00:51:29;;;;;;;52.90;42.17;;;11.20;78.50;;;;;;5035226;28;20411;-76
2022/01/15 00:53:55;;;;;;;48.05;41.53;;;11.20;78.60;;;;;;5035336;28;20352;-77
2022/01/15 00:56:21;;;;;;;48.33;42.65;;;11.20;78.60;;;;;;5035015;28;20136;-73
2022/01/15 00:58:47;;;;;;;45.38;39.88;;;11.20;78.90;;;;;;5035238;28;20105;-72
2022/01/15 01:01:13;;;;;;;44.85;39.20;;;11.20;78.60;;;;;;5034762;28;20112;-74
2022/01/15 01:03:38;;;;;;;45.60;38.55;;;11.10;78.70;;;;;;5035202;28;20022;-74
2022/01/15 01:06:04;;;;;;;45.92;38.90;;;11.10;78.70;;;;;;5034934;28;20088;-73
2022/01/15 01:08:29;;;;;;;48.60;40.47;;;11.10;78.80;;;;;;5035177;28;20025;-77
2022/01/15 01:10:57;;;;;;;49.10;38.90;;;11.10;78.70;;;;;;5034473;28;20040;-77
2022/01/15 01:24:27;;;;;;;48.30;40.60;;;11.10;78.90;;;;;;5034536;28;20060;-77
2022/01/15 01:27:08;;;;;;;50.10;42.90;;;11.10;79.20;;;;;;5034306;28;20017;-71
2022/01/15 01:29:42;;;;;;;50.30;41.13;;;11.00;79.40;;;;;;5034738;28;20022;-75
2022/01/15 01:32:15;;;;;;;48.28;41.13;;;11.00;79.30;;;;;;5034565;28;20024;-63
2022/01/15 01:34:43;;;;;;;45.08;39.90;;;11.00;79.30;;;;;;5034492;28;20025;-77
2022/01/15 01:37:17;;;;;;;47.15;40.65;;;11.00;79.40;;;;;;5034315;28;20030;-77
2022/01/15 01:39:47;;;;;;;51.65;43.17;;;11.00;79.70;;;;;;5034081;28;20053;-75
2022/01/15 01:45:06;;;;;;;53.47;44.05;;;11.00;79.80;;;;;;5034348;28;20367;-75
2022/01/15 01:47:39;;;;;;;48.25;39.00;;;10.90;79.70;;;;;;5034190;28;20490;-78
2022/01/15 01:50:16;;;;;;;48.35;39.28;;;10.90;79.30;;;;;;5034072;28;20099;-72
2022/01/15 01:52:45;;;;;;;44.97;39.17;;;10.90;79.40;;;;;;5034010;28;20026;-75
2022/01/15 01:55:11;;;;;;;47.95;40.50;;;10.90;79.40;;;;;;5033879;28;20083;-77
2022/01/15 01:57:37;;;;;;;50.65;42.00;;;10.90;79.50;;;;;;5033855;28;20437;-77
2022/01/15 02:00:06;;;;;;;45.10;39.25;;;10.80;79.40;;;;;;5033863;28;20059;-75
2022/01/15 02:02:31;;;;;;;52.28;41.35;;;10.90;79.40;;;;;;5033805;28;20033;-75
2022/01/15 02:04:58;;;;;;;44.47;38.25;;;10.80;79.50;;;;;;5033899;28;20083;-68
2022/01/15 02:07:26;;;;;;;46.85;38.08;;;10.90;79.40;;;;;;5033855;28;20025;-77
2022/01/15 02:09:53;;;;;;;47.35;38.63;;;10.80;79.40;;;;;;5033495;28;20022;-77
2022/01/15 02:12:18;;;;;;;45.13;37.88;;;10.70;79.50;;;;;;5033460;28;20033;-76
2022/01/15 02:14:44;;;;;;;44.17;38.83;;;10.60;79.80;;;;;;5033738;28;20548;-76
2022/01/15 02:17:12;;;;;;;46.88;37.97;;;10.60;79.80;;;;;;5033624;28;20466;-77
2022/01/15 02:19:46;;;;;;;46.28;38.88;;;10.70;79.70;;;;;;5033818;28;20030;-77
2022/01/15 02:24:55;;;;;;;45.50;37.97;;;10.70;79.80;;;;;;5033657;28;20437;-78
2022/01/15 02:27:21;;;;;;;48.97;39.42;;;10.70;79.70;;;;;;5033455;28;20025;-78
2022/01/15 02:29:46;;;;;;;52.08;41.97;;;10.70;79.80;;;;;;5033440;28;20489;-72
2022/01/15 02:32:12;;;;;;;49.72;41.65;;;10.70;80.10;;;;;;5033499;28;20030;-78
2022/01/15 02:34:37;;;;;;;49.42;40.42;;;10.60;80.10;;;;;;5033434;28;20070;-78
2022/01/15 02:37:03;;;;;;;50.53;39.72;;;10.60;79.90;;;;;;5033153;28;20505;-78
2022/01/15 02:39:28;;;;;;;49.28;41.42;;;10.60;79.90;;;;;;5033024;28;20455;-78
2022/01/15 02:41:54;;;;;;;49.17;41.33;;;10.60;80.20;;;;;;5015598;28;20044;-77
2022/01/15 02:44:20;;;;;;;47.78;40.20;;;10.60;80.20;;;;;;5033111;28;20072;-78
2022/01/15 02:49:16;;;;;;;45.22;37.40;;;10.60;80.10;;;;;;5033257;28;20052;-77
2022/01/15 02:51:42;;;;;;;50.33;38.45;;;10.50;80.10;;;;;;5032858;28;20035;-76
2022/01/15 02:54:08;;;;;;;46.42;38.97;;;10.50;80.00;;;;;;5033077;28;20026;-77
2022/01/15 02:56:42;;;;;;;50.67;38.92;;;10.50;80.10;;;;;;5033182;28;20029;-77
2022/01/15 02:59:20;;;;;;;48.45;37.20;;;10.40;80.00;;;;;;5033143;28;20026;-77
2022/01/15 03:01:48;;;;;;;46.08;37.70;;;10.30;80.50;;;;;;5032988;28;20037;-77
2022/01/15 03:04:15;;;;;;;46.30;37.85;;;10.40;80.30;;;;;;5032743;28;20479;-77
2022/01/15 03:06:40;;;;;;;48.10;38.33;;;10.40;80.30;;;;;;5032769;28;20600;-77
2022/01/15 03:09:06;;;;;;;49.40;38.50;;;10.40;80.30;;;;;;5032909;28;20045;-79
2022/01/15 03:11:32;;;;;;;51.05;40.88;;;10.40;80.40;;;;;;5032976;28;20497;-78
2022/01/15 03:13:57;;;;;;;48.80;39.47;;;10.40;80.50;;;;;;5032853;28;20045;-77
2022/01/15 03:16:23;;;;;;;46.13;38.28;;;10.20;80.40;;;;;;5033041;28;20543;-75
2022/01/15 03:18:49;;;;;;;50.78;41.47;;;10.20;81.30;;;;;;5032996;28;20542;-77
2022/01/15 03:21:15;;;;;;;54.22;42.90;;;10.30;81.00;;;;;;5032606;28;20033;-76
2022/01/15 03:23:41;;;;;;;54.50;42.78;;;10.30;80.80;;;;;;5032650;28;20082;-75
2022/01/15 03:26:08;;;;;;;50.67;39.42;;;10.40;81.00;;;;;;5032881;28;20512;-77
2022/01/15 03:28:34;;;;;;;48.80;37.75;;;10.30;80.90;;;;;;5033033;28;20482;-78
2022/01/15 03:31:00;;;;;;;46.70;36.38;;;10.30;80.70;;;;;;5032774;28;20022;-78
2022/01/15 03:33:26;;;;;;;47.03;36.53;;;10.40;80.80;;;;;;5032702;28;20037;-77
2022/01/15 03:35:52;;;;;;;47.38;39.25;;;10.30;80.70;;;;;;5032414;28;20087;-74
2022/01/15 03:38:17;;;;;;;47.75;38.80;;;10.40;80.80;;;;;;5031523;28;20033;-78
2022/01/15 03:40:43;;;;;;;47.03;39.08;;;10.40;80.70;;;;;;5032479;28;20039;-77
2022/01/15 03:43:09;;;;;;;54.95;39.25;;;10.30;80.80;;;;;;5032158;28;20030;-75
2022/01/15 03:45:34;;;;;;;47.95;37.90;;;10.30;81.00;;;;;;5032710;28;20021;-70
2022/01/15 03:48:00;;;;;;;47.05;38.50;;;9.90;82.00;;;;;;5032634;28;20116;-79
2022/01/15 03:50:26;;;;;;;47.28;37.53;;;10.10;81.80;;;;;;5032000;28;20026;-72
2022/01/15 03:52:53;;;;;;;56.22;42.38;;;9.90;82.30;;;;;;5032811;28;20091;-72
2022/01/15 03:55:20;;;;;;;50.63;38.97;;;10.00;82.20;;;;;;5032830;28;20025;-79
2022/01/15 03:57:46;;;;;;;47.00;38.00;;;10.10;81.80;;;;;;5032604;28;20017;-79
2022/01/15 04:00:20;;;;;;;47.92;39.35;;;10.10;81.70;;;;;;5032477;28;20486;-76
2022/01/15 04:02:47;;;;;;;49.15;39.55;;;10.10;81.50;;;;;;5015981;28;20026;-78
2022/01/15 04:05:14;;;;;;;48.60;37.83;;;10.20;81.60;;;;;;5035010;28;20083;-78
2022/01/15 04:07:39;;;;;;;57.03;41.95;;;10.20;81.60;;;;;;5036257;28;20028;-76
2022/01/15 04:10:08;;;;;;;51.33;39.00;;;10.10;81.70;;;;;;5035792;28;20029;-79
2022/01/15 04:12:33;;;;;;;50.10;39.00;;;10.00;81.90;;;;;;5036207;28;20080;-77
2022/01/15 04:14:59;;;;;;;50.05;39.72;;;10.10;81.80;;;;;;5035985;28;20030;-78
2022/01/15 04:17:25;;;;;;;50.80;38.67;;;10.10;81.60;;;;;;5035928;28;20049;-78
2022/01/15 04:19:52;;;;;;;48.55;37.60;;;10.20;81.60;;;;;;5035480;28;20036;-78
2022/01/15 04:22:17;;;;;;;49.00;39.40;;;9.90;82.30;;;;;;5036011;28;20049;-76
2022/01/15 04:24:43;;;;;;;49.72;38.38;;;10.00;82.20;;;;;;5035957;28;20072;-77
2022/01/15 04:27:09;;;;;;;48.08;36.45;;;10.10;82.10;;;;;;5035857;28;20029;-78
2022/01/15 04:29:34;;;;;;;45.63;35.50;;;10.10;81.80;;;;;;5035751;28;20018;-67
2022/01/15 04:32:00;;;;;;;46.10;36.13;;;10.00;81.90;;;;;;5035633;28;20057;-77
2022/01/15 04:34:28;;;;;;;46.83;36.60;;;10.00;81.70;;;;;;5035337;28;20140;-77
2022/01/15 04:37:04;;;;;;;44.90;36.05;;;10.00;81.90;;;;;;5035516;28;20037;-77
2022/01/15 04:39:30;;;;;;;46.17;35.33;;;10.10;82.10;;;;;;5035498;28;20024;-76
2022/01/15 04:41:56;;;;;;;46.10;37.50;;;10.00;82.00;;;;;;5035153;28;20029;-77
2022/01/15 04:44:21;;;;;;;49.08;36.83;;;10.00;81.90;;;;;;5035584;28;20071;-74
2022/01/15 04:46:47;;;;;;;49.40;38.00;;;9.90;82.20;;;;;;5035391;28;20501;-76
2022/01/15 04:49:13;;;;;;;48.92;37.70;;;9.80;82.70;;;;;;5035151;28;20466;-75
2022/01/15 04:51:38;;;;;;;47.75;38.17;;;9.90;82.70;;;;;;5035220;28;20091;-74
2022/01/15 04:54:04;;;;;;;46.22;37.33;;;10.00;82.50;;;;;;5035296;28;20021;-77
2022/01/15 04:56:29;;;;;;;47.70;37.75;;;10.00;82.40;;;;;;5017296;28;20099;-73
2022/01/15 04:58:55;;;;;;;49.30;38.28;;;10.00;82.20;;;;;;5035258;28;20044;-75
2022/01/15 05:01:21;;;;;;;48.92;36.42;;;9.80;83.00;;;;;;5035000;28;20041;-73
2022/01/15 05:03:47;;;;;;;52.55;39.42;;;9.60;83.40;;;;;;5034882;28;20045;-74
2022/01/15 05:06:12;;;;;;;49.60;39.35;;;9.70;83.10;;;;;;5034998;28;20099;-74
2022/01/15 05:08:40;;;;;;;51.38;39.90;;;9.80;82.90;;;;;;5035155;28;20084;-77
2022/01/15 05:11:13;;;;;;;55.13;42.10;;;9.80;82.70;;;;;;5034736;28;20068;-73
2022/01/15 05:13:39;;;;;;;54.75;40.53;;;9.60;83.60;;;;;;5034806;28;20033;-75
2022/01/15 05:16:06;;;;;;;55.05;42.47;;;9.80;83.20;;;;;;5016238;28;20527;-76
2022/01/15 05:18:31;;;;;;;57.95;44.38;;;9.80;83.00;;;;;;5034765;28;20026;-74
2022/01/15 05:20:57;;;;;;;59.35;44.85;;;9.90;83.00;;;;;;5034826;28;20390;-78
2022/01/15 05:23:23;;;;;;;59.53;46.42;;;9.90;82.80;;;;;;5034619;28;20471;-77
2022/01/15 05:25:49;;;;;;;59.75;45.10;;;9.90;82.70;;;;;;5034818;28;20064;-77
2022/01/15 05:28:14;;;;;;;67.50;48.15;;;9.90;83.50;;;;;;5034617;28;20017;-71
2022/01/15 05:30:40;;;;;;;62.30;47.72;;;9.90;82.80;;;;;;5034179;28;20434;-76
2022/01/15 05:33:06;;;;;;;67.63;49.30;;;9.90;82.90;;;;;;5034350;28;20022;-78
2022/01/15 05:35:31;;;;;;;69.07;49.70;;;9.90;82.90;;;;;;5034620;28;20029;-77
2022/01/15 05:37:59;;;;;;;69.47;47.85;;;9.90;83.00;;;;;;5034470;28;20048;-67
2022/01/15 05:40:25;;;;;;;69.97;52.03;;;9.90;83.10;;;;;;5034080;28;20425;-73
2022/01/15 05:42:52;;;;;;;66.32;49.28;;;9.90;83.30;;;;;;5034310;28;20060;-63
2022/01/15 05:45:17;;;;;;;66.18;48.63;;;9.90;83.40;;;;;;5034014;28;20025;-76
2022/01/15 05:47:43;;;;;;;71.50;51.10;;;9.90;83.20;;;;;;5034257;28;20020;-66
2022/01/15 05:50:09;;;;;;;68.53;48.08;;;9.90;82.70;;;;;;5034288;28;20107;-76
2022/01/15 05:52:35;;;;;;;75.82;52.88;;;9.80;82.50;;;;;;5033987;28;20029;-72
2022/01/15 05:55:01;;;;;;;71.13;49.53;;;9.80;82.50;;;;;;5034220;28;20470;-67
2022/01/15 05:57:26;;;;;;;70.55;48.78;;;9.80;82.50;;;;;;5034105;28;20034;-66
2022/01/15 05:59:52;;;;;;;72.07;52.05;;;9.80;82.60;;;;;;5033537;28;20056;-76
2022/01/15 06:02:18;;;;;;;73.00;49.47;;;9.80;82.50;;;;;;5018245;28;20037;-79
2022/01/15 06:04:44;;;;;;;76.97;52.65;;;9.80;82.70;;;;;;5013157;28;20034;-66
2022/01/15 06:07:10;;;;;;;69.72;50.58;;;9.80;82.50;;;;;;5013385;28;20475;-73
2022/01/15 06:09:35;;;;;;;72.28;49.53;;;9.70;82.60;;;;;;5014145;28;20022;-68
2022/01/15 06:12:02;;;;;;;74.93;50.95;;;9.70;82.60;;;;;;5013101;28;20479;-76
2022/01/15 06:14:29;;;;;;;70.30;49.13;;;9.70;82.90;;;;;;5013507;28;20460;-76
2022/01/15 06:16:55;;;;;;;71.55;51.60;;;9.70;82.80;;;;;;5014194;28;20029;-61
2022/01/15 06:19:21;;;;;;;75.47;51.45;;;9.60;83.10;;;;;;5013909;28;20021;-76
2022/01/15 06:21:46;;;;;;;74.70;51.10;;;9.60;83.30;;;;;;5013801;28;20037;-70
2022/01/15 06:24:12;;;;;;;73.40;50.33;;;9.60;83.20;;;;;;5013911;28;20030;-79
2022/01/15 06:26:37;;;;;;;76.25;51.53;;;9.60;83.70;;;;;;5013589;28;20530;-75
2022/01/15 06:29:03;;;;;;;75.45;51.33;;;9.70;83.30;;;;;;5013270;28;20088;-73
2022/01/15 06:31:30;;;;;;;75.93;52.92;;;9.60;83.30;;;;;;5013823;28;20049;-68
2022/01/15 06:33:57;;;;;;;75.00;52.85;;;9.70;83.40;;;;;;5013690;28;20060;-76
2022/01/15 06:36:22;;;;;;;74.10;51.92;;;9.70;83.40;;;;;;5013585;28;20022;-69
2022/01/15 06:38:48;;;;;;;74.47;52.40;;;9.60;83.30;;;;;;5013541;28;20037;-66
2022/01/15 06:41:14;;;;;;;74.90;52.10;;;9.70;83.40;;;;;;5024939;28;20477;-72
2022/01/15 06:43:39;;;;;;;74.32;52.13;;;9.70;83.40;;;;;;5018649;28;20173;-76
2022/01/15 06:46:05;;;;;;;76.47;52.75;;;9.80;83.50;;;;;;5022234;28;20067;-72
2022/01/15 06:48:31;;;;;;;76.90;51.75;;;9.70;83.50;;;;;;5019165;28;20030;-77
2022/01/15 06:50:56;;;;;;;75.28;51.55;;;9.80;83.60;;;;;;5033011;28;20033;-78
2022/01/15 06:53:22;;;;;;;74.60;50.92;;;9.80;83.70;;;;;;5030471;28;20390;-77
2022/01/15 06:55:50;;;;;;;74.68;51.42;;;9.80;83.50;;;;;;5019095;28;20025;-78
2022/01/15 06:58:16;;;;;;;70.32;49.63;;;9.80;83.30;;;;;;5032490;28;20018;-64
2022/01/15 07:00:42;;;;;;;72.07;49.15;;;9.90;83.10;;;;;;5032443;28;20571;-65
2022/01/15 07:03:07;;;;;;;72.40;49.88;;;9.90;82.90;;;;;;5025823;28;20041;-61
2022/01/15 07:05:33;;;;;;;70.50;47.90;;;10.00;82.90;;;;;;5013241;28;20033;-60
2022/01/15 07:07:58;;;;;;;71.63;49.13;;;10.00;82.80;;;;;;5027067;28;20022;-60
2022/01/15 07:10:25;;;;;;;65.18;46.97;;;10.00;82.50;;;;;;5032363;28;20025;-65
2022/01/15 07:12:51;;;;;;;64.45;47.10;;;10.00;82.20;;;;;;5031606;28;20536;-71
2022/01/15 07:15:17;;;;;;;65.20;46.75;;;10.00;82.20;;;;;;5032555;28;20032;-61
2022/01/15 07:17:44;;;;;;;63.58;46.92;;;10.00;82.00;;;;;;5032745;28;20068;-60
2022/01/15 07:20:10;;;;;;;66.45;46.80;;;9.90;82.00;;;;;;5032631;28;20034;-60
2022/01/15 07:22:36;;;;;;;65.85;47.42;;;9.90;82.20;;;;;;5024896;28;20025;-62
2022/01/15 07:25:03;;;;;;;64.07;46.13;;;9.90;82.50;;;;;;5008937;28;20036;-62
2022/01/15 07:27:28;;;;;;;64.25;47.50;;;9.90;82.50;;;;;;5031091;28;20025;-59
2022/01/15 07:29:54;;;;;;;63.38;47.42;;;9.90;82.40;;;;;;5022255;28;20497;-72
2022/01/15 07:32:19;;;;;;;59.33;45.67;;;9.90;82.00;;;;;;5023804;28;20479;-62
2022/01/15 07:34:45;;;;;;;63.92;47.67;;;9.90;82.30;;;;;;5032490;28;20030;-71
2022/01/15 07:37:10;;;;;;;59.78;45.85;;;9.90;82.30;;;;;;5015120;28;20038;-72
2022/01/15 07:39:36;;;;;;;66.88;48.17;;;9.90;82.70;;;;;;5014623;28;20018;-61
2022/01/15 07:42:03;;;;;;;66.95;47.53;;;9.90;82.60;;;;;;5016212;28;20490;-58
2022/01/15 07:44:28;;;;;;;67.38;47.92;;;9.90;82.60;;;;;;5031931;28;20033;-64
2022/01/15 07:46:54;;;;;;;68.25;48.83;;;10.00;82.60;;;;;;5021764;28;20025;-79
2022/01/15 07:49:20;;;;;;;67.13;48.35;;;10.00;82.50;;;;;;5029384;28;20493;-81
2022/01/15 07:51:46;;;;;;;67.60;48.78;;;10.00;82.30;;;;;;5030903;28;20022;-75
2022/01/15 07:54:11;;;;;;;78.20;51.35;;;10.10;82.40;;;;;;5033807;28;20028;-76
2022/01/15 07:56:37;;;;;;;81.47;51.00;;;8.60;84.20;;;;;;5030024;28;20528;-81
2022/01/15 07:59:03;;;;;;;78.70;50.08;;;6.20;92.90;;;;;;5025343;28;20104;-79
2022/01/15 08:01:28;;;;;;;83.30;51.75;;;5.50;95.00;;;;;;5035080;28;20041;-78
2022/01/15 08:03:54;;;;;;;86.68;49.10;;;5.10;96.40;;;;;;5030699;28;20101;-75
2022/01/15 08:06:19;;;;;;;84.95;49.55;;;4.60;97.10;;;;;;5026295;28;20033;-76
2022/01/15 08:08:45;;;;;;;94.03;52.17;;;4.50;97.70;;;;;;5033508;28;20091;-62
2022/01/15 08:11:11;;;;;;;94.03;59.05;;;4.60;97.90;;;;;;5023371;28;20030;-70
2022/01/15 08:13:36;;;;;;;90.57;58.95;;;5.30;97.00;;;;;;5018146;28;20117;-68
2022/01/15 08:16:04;;;;;;;98.03;59.83;;;5.40;96.30;;;;;;5032889;28;20483;-67
2022/01/15 08:18:30;;;;;;;80.35;48.08;;;5.50;96.00;;;;;;5028115;28;20016;-68
2022/01/15 08:20:55;;;;;;;86.90;59.15;;;6.10;97.40;;;;;;5029173;28;20395;-68
2022/01/15 08:23:21;;;;;;;93.13;56.45;;;6.40;94.10;;;;;;5005778;28;20052;-68
2022/01/15 08:25:47;;;;;;;93.72;59.35;;;6.20;94.30;;;;;;5024663;28;20034;-68
2022/01/15 08:28:13;;;;;;;94.28;57.63;;;5.90;94.80;;;;;;5023959;28;20018;-67
2022/01/15 08:30:38;;;;;;;99.22;58.30;;;5.80;95.10;;;;;;5031904;28;20079;-67
2022/01/15 08:33:04;;;;;;;99.10;59.45;;;5.90;95.60;;;;;;5035449;28;20021;-67
2022/01/15 08:35:30;;;;;;;88.88;52.13;;;5.80;95.30;;;;;;5035169;28;20049;-63
2022/01/15 08:37:57;;;;;;;107.90;53.15;;;5.70;94.90;;;;;;5034423;28;20098;-63
2022/01/15 08:40:24;;;;;;;78.28;47.05;;;6.00;94.10;;;;;;5034679;28;20032;-64
2022/01/15 08:42:50;;;;;;;83.18;50.22;;;6.80;94.70;;;;;;5035410;28;20041;-64
2022/01/15 08:45:16;;;;;;;81.07;50.28;;;7.20;93.20;;;;;;5035285;28;20020;-64
2022/01/15 08:47:43;;;;;;;82.60;49.40;;;7.50;92.50;;;;;;5033212;28;20033;-65
2022/01/15 08:50:11;;;;;;;81.30;49.50;;;7.70;92.00;;;;;;5034345;28;20029;-63
2022/01/15 08:52:37;;;;;;;79.97;50.42;;;7.80;91.60;;;;;;5035118;28;20033;-63
2022/01/15 08:55:04;;;;;;;79.55;50.47;;;7.90;91.30;;;;;;5046068;28;20378;-63
2022/01/15 08:57:30;;;;;;;77.30;48.65;;;8.00;91.10;;;;;;5040309;28;20025;-64
2022/01/15 08:59:56;;;;;;;78.50;48.25;;;8.10;91.10;;;;;;5028255;28;20049;-63
2022/01/15 09:02:22;;;;;;;81.38;49.42;;;8.20;90.90;;;;;;5021598;28;20021;-64
2022/01/15 09:04:48;;;;;;;86.43;50.70;;;8.30;90.90;;;;;;5019399;28;20032;-64
2022/01/15 09:07:14;;;;;;;81.63;51.38;;;8.30;90.70;;;;;;5023434;28;20406;-64
2022/01/15 09:09:40;;;;;;;84.13;50.35;;;8.30;90.60;;;;;;5017613;28;20064;-64
2022/01/15 09:12:06;;;;;;;82.20;50.40;;;8.40;90.60;;;;;;5021766;28;20466;-64
2022/01/15 09:14:32;;;;;;;80.68;49.03;;;8.50;90.50;;;;;;5025566;28;20049;-62
2022/01/15 09:16:58;;;;;;;79.82;47.00;;;8.50;90.50;;;;;;5020231;28;20029;-63
2022/01/15 09:19:23;;;;;;;69.80;44.35;;;8.60;90.50;;;;;;5018262;28;20026;-60
2022/01/15 09:21:49;;;;;;;72.13;42.72;;;8.60;90.70;;;;;;5027038;28;20546;-64
2022/01/15 09:24:15;;;;;;;68.70;41.67;;;8.70;90.40;;;;;;5016376;28;20032;-63
2022/01/15 09:31:58;;;;;;;66.07;39.28;;;8.50;90.80;;;;;;5019500;28;20544;-60
2022/01/15 09:34:24;;;;;;;64.47;39.05;;;8.50;90.90;;;;;;5024888;28;20037;-60
2022/01/15 09:36:49;;;;;;;62.92;38.17;;;8.50;90.80;;;;;;5016455;28;20060;-60
2022/01/15 09:39:16;;;;;;;68.95;40.97;;;8.60;90.70;;;;;;5026444;28;20073;-60
2022/01/15 09:41:46;;;;;;;70.07;39.25;;;8.70;90.30;;;;;;5022757;28;20129;-60
2022/01/15 09:44:17;;;;;;;66.53;40.22;;;8.70;90.40;;;;;;5025580;28;20040;-59
2022/01/15 09:46:44;;;;;;;67.15;38.00;;;8.60;90.80;;;;;;5022569;28;20113;-58
2022/01/15 09:49:10;;;;;;;63.67;38.20;;;8.70;90.80;;;;;;5028339;28;20021;-58
2022/01/15 09:51:36;;;;;;;61.17;35.20;;;8.50;91.30;;;;;;5023129;28;20025;-59
2022/01/15 09:54:02;;;;;;;55.42;33.25;;;8.40;91.50;;;;;;5025948;28;20029;-59
2022/01/15 09:56:28;;;;;;;58.33;34.30;;;8.40;91.60;;;;;;5020744;28;20075;-58
2022/01/15 09:58:54;;;;;;;48.10;28.08;;;8.50;91.50;;;;;;5023148;28;20497;-60
2022/01/15 10:01:20;;;;;;;64.03;36.92;;;8.50;92.40;;;;;;5027156;28;20037;-59
2022/01/15 10:03:45;;;;;;;61.92;35.22;;;8.60;91.10;;;;;;5025489;28;20034;-59
2022/01/15 10:06:11;;;;;;;63.38;36.30;;;8.60;91.10;;;;;;5026108;28;20029;-58
2022/01/15 10:08:37;;;;;;;62.25;35.65;;;8.70;91.10;;;;;;5022107;28;20030;-59
2022/01/15 10:11:11;;;;;;;69.20;36.33;;;8.70;91.00;;;;;;5022995;28;20029;-59
2022/01/15 10:13:44;;;;;;;67.35;37.33;;;8.70;91.00;;;;;;5029647;28;20033;-70
2022/01/15 10:16:17;;;;;;;64.88;35.65;;;8.90;90.30;;;;;;5023302;28;20037;-60
2022/01/15 10:18:47;;;;;;;69.63;38.75;;;9.00;90.20;;;;;;5016674;28;20041;-60
2022/01/15 10:21:26;;;;;;;67.38;35.58;;;9.00;89.90;;;;;;5024969;28;20437;-60
2022/01/15 10:23:55;;;;;;;55.65;32.58;;;8.90;90.60;;;;;;5022174;28;20022;-60
2022/01/15 10:26:31;;;;;;;56.75;31.85;;;8.80;91.10;;;;;;5031467;28;20045;-60
2022/01/15 10:29:07;;;;;;;61.92;35.88;;;9.00;91.30;;;;;;5019306;28;20095;-60
2022/01/15 10:31:37;;;;;;;64.60;34.33;;;9.00;90.60;;;;;;5019565;28;20077;-64
2022/01/15 10:34:24;;;;;;;68.32;37.90;;;9.00;90.90;;;;;;5025998;28;20037;-61
2022/01/15 10:36:50;;;;;;;67.97;37.72;;;9.10;90.10;;;;;;5018881;28;20030;-62
2022/01/15 10:39:20;;;;;;;61.63;35.70;;;9.20;88.40;;;;;;5020329;28;20014;-63
2022/01/15 10:41:47;;;;;;;70.32;39.33;;;9.10;88.50;;;;;;5018661;28;20144;-64
2022/01/15 10:44:35;;;;;;;70.40;38.33;;;9.20;88.30;;;;;;5017209;28;20250;-60
2022/01/15 10:47:22;;;;;;;68.95;36.80;;;9.20;87.90;;;;;;5019613;28;20022;-60
2022/01/15 10:49:48;;;;;;;66.72;37.10;;;9.20;88.30;;;;;;5017823;28;20029;-60
2022/01/15 10:52:20;;;;;;;72.18;39.13;;;9.10;88.70;;;;;;5019315;28;20029;-65
2022/01/15 10:55:15;;;;;;;75.53;40.88;;;9.10;88.50;;;;;;5017308;28;20024;-61
2022/01/15 10:57:52;;;;;;;70.97;38.95;;;9.00;89.50;;;;;;5034405;28;20025;-65
2022/01/15 11:00:36;;;;;;;68.43;38.83;;;9.10;89.40;;;;;;5017118;28;20026;-66
2022/01/15 11:03:12;;;;;;;70.30;38.40;;;9.10;89.20;;;;;;5013413;28;20045;-63
2022/01/15 11:05:43;;;;;;;62.75;34.33;;;9.00;90.00;;;;;;5017139;28;20018;-67
2022/01/15 11:08:11;;;;;;;66.20;36.17;;;9.00;90.90;;;;;;5016337;28;20438;-68
2022/01/15 11:10:38;;;;;;;57.08;33.30;;;9.10;90.30;;;;;;5017127;28;20034;-66
2022/01/15 11:13:06;;;;;;;58.72;30.10;;;9.20;90.80;;;;;;5014832;28;20037;-68
2022/01/15 11:15:34;;;;;;;56.38;31.27;;;9.30;91.60;;;;;;5022461;28;20048;-68
2022/01/15 11:18:01;;;;;;;56.78;31.92;;;9.40;90.60;;;;;;5021131;28;20112;-67
2022/01/15 11:20:31;;;;;;;51.20;28.63;;;9.40;90.90;;;;;;5024207;28;20026;-63
2022/01/15 11:22:56;;;;;;;52.25;29.45;;;9.50;92.10;;;;;;5024646;28;20029;-60
2022/01/15 11:25:22;;;;;;;53.72;30.25;;;9.70;91.80;;;;;;5020218;28;20025;-63
2022/01/15 11:27:49;;;;;;;53.78;27.63;;;9.70;92.10;;;;;;5021709;28;20030;-66
2022/01/15 11:30:14;;;;;;;58.05;28.67;;;9.80;91.90;;;;;;5019867;28;20029;-66
2022/01/15 11:32:43;;;;;;;56.08;31.90;;;9.90;91.60;;;;;;5029321;28;20144;-73
2022/01/15 11:35:09;;;;;;;58.70;34.97;;;9.80;90.50;;;;;;5020270;28;20049;-70
2022/01/15 11:37:53;;;;;;;60.22;35.35;;;9.70;89.50;;;;;;5024884;28;20025;-73
2022/01/15 11:40:46;;;;;;;57.53;33.97;;;9.60;88.90;;;;;;5024098;28;20042;-74
2022/01/15 11:43:24;;;;;;;54.58;32.63;;;9.50;88.60;;;;;;5022889;28;20056;-74
2022/01/15 11:45:54;;;;;;;54.92;32.50;;;9.60;87.70;;;;;;5020841;28;20439;-74
2022/01/15 11:48:33;;;;;;;54.42;31.27;;;9.50;87.80;;;;;;5021453;28;20060;-72
2022/01/15 11:51:14;;;;;;;54.30;33.10;;;9.50;89.10;;;;;;5025721;28;20104;-75
2022/01/15 11:53:53;;;;;;;52.13;32.67;;;9.50;88.70;;;;;;5019400;28;20044;-77
2022/01/15 11:56:24;;;;;;;50.72;33.08;;;9.50;88.90;;;;;;5018972;28;20480;-68
2022/01/15 11:58:52;;;;;;;52.92;31.77;;;9.50;89.60;;;;;;5027951;28;20017;-64
2022/01/15 12:01:42;;;;;;;53.22;32.70;;;9.50;89.40;;;;;;5019328;28;20034;-61
2022/01/15 12:04:28;;;;;;;55.92;34.50;;;9.40;90.40;;;;;;5019371;28;20021;-66
2022/01/15 12:07:03;;;;;;;56.30;35.03;;;9.50;91.40;;;;;;5026071;28;20394;-67
2022/01/15 12:09:35;;;;;;;57.78;35.60;;;9.60;91.00;;;;;;5014065;28;20057;-65
2022/01/15 12:12:30;;;;;;;64.88;37.13;;;9.70;92.50;;;;;;5015961;28;20034;-67
2022/01/15 12:14:56;;;;;;;55.00;33.40;;;9.80;93.90;;;;;;5020312;28;20046;-66
2022/01/15 12:17:30;;;;;;;80.78;39.92;;;9.90;91.00;;;;;;5014372;28;20498;-66
2022/01/15 12:20:01;;;;;;;84.90;44.97;;;9.90;92.40;;;;;;5014186;28;20382;-63
2022/01/15 12:22:43;;;;;;;91.20;47.08;;;10.00;92.80;;;;;;5023590;28;20098;-67
2022/01/15 12:25:11;;;;;;;100.47;51.53;;;10.20;94.50;;;;;;5023606;28;20025;-61
2022/01/15 12:27:39;;;;;;;88.78;45.72;;;10.30;94.60;;;;;;5026103;28;20087;-65
2022/01/15 12:30:17;;;;;;;61.20;34.90;;;10.30;93.60;;;;;;5031038;28;20059;-67
2022/01/15 12:32:45;;;;;;;50.55;33.47;;;10.20;90.10;;;;;;5014796;28;20037;-61
2022/01/15 12:35:20;;;;;;;51.55;31.35;;;10.10;89.70;;;;;;5015296;28;20038;-67
2022/01/15 12:37:51;;;;;;;62.15;36.10;;;10.10;88.80;;;;;;5017576;28;20026;-63
2022/01/15 12:40:17;;;;;;;54.70;32.40;;;10.00;90.30;;;;;;5035337;28;20025;-66
2022/01/15 12:42:43;;;;;;;58.83;34.97;;;10.00;90.60;;;;;;5034067;28;20345;-66
2022/01/15 12:45:18;;;;;;;51.95;33.28;;;10.20;92.00;;;;;;5035176;28;20096;-67
2022/01/15 12:47:47;;;;;;;45.65;29.52;;;10.20;88.20;;;;;;5034107;28;20029;-61
2022/01/15 12:50:13;;;;;;;46.15;29.77;;;10.20;86.30;;;;;;5022162;28;20025;-67
2022/01/15 12:52:39;;;;;;;44.40;30.00;;;10.10;86.10;;;;;;5015783;28;20486;-62
2022/01/15 12:55:05;;;;;;;44.10;29.23;;;10.00;87.10;;;;;;5028229;28;20091;-61
2022/01/15 12:57:43;;;;;;;43.40;30.42;;;10.00;87.70;;;;;;5030030;28;21480;-67
2022/01/15 13:00:30;;;;;;;40.60;28.85;;;10.10;86.50;;;;;;5025429;28;20450;-62
2022/01/15 13:02:59;;;;;;;39.05;28.95;;;10.10;86.10;;;;;;5025369;28;20482;-67